createdAt,value
2018-08-11T00:00:20.946Z,0.80
2018-08-11T00:02:46.913Z,0.70
2018-08-11T00:05:12.873Z,0.70
2018-08-11T00:07:39.560Z,0.60
2018-08-11T00:10:05.556Z,0.70
2018-08-11T00:12:31.525Z,0.77
2018-08-11T00:14:57.473Z,0.60
2018-08-11T00:17:24.172Z,0.77
2018-08-11T00:19:50.142Z,0.80
2018-08-11T00:22:16.116Z,0.80
2018-08-11T00:24:42.073Z,0.70
2018-08-11T00:27:08.799Z,0.60
2018-08-11T00:29:34.758Z,0.50
2018-08-11T00:32:00.730Z,0.60
2018-08-11T00:34:26.684Z,0.73
2018-08-11T00:36:53.386Z,0.60
2018-08-11T00:39:19.357Z,0.80
2018-08-11T00:41:46.055Z,0.70
2018-08-11T00:44:12.042Z,0.80
2018-08-11T00:46:37.994Z,0.93
2018-08-11T00:49:04.078Z,0.57
2018-08-11T00:51:30.046Z,0.90
2018-08-11T00:53:56.043Z,0.80
2018-08-11T00:56:21.996Z,0.83
2018-08-11T00:58:47.968Z,0.93
2018-08-11T01:01:13.965Z,0.80
2018-08-11T01:03:39.916Z,0.70
2018-08-11T01:06:05.904Z,0.70
2018-08-11T01:08:31.857Z,0.50
2018-08-11T01:10:57.897Z,0.70
2018-08-11T01:13:23.807Z,0.70
2018-08-11T01:15:49.812Z,0.70
2018-08-11T01:18:16.539Z,0.70
2018-08-11T01:20:43.247Z,0.90
2018-08-11T01:23:09.223Z,0.80
2018-08-11T01:25:35.173Z,1.00
2018-08-11T01:28:01.132Z,0.70
2018-08-11T01:30:27.098Z,0.80
2018-08-11T01:32:53.055Z,0.80
2018-08-11T01:35:19.037Z,0.70
2018-08-11T01:37:44.994Z,1.10
2018-08-11T01:40:10.975Z,0.77
2018-08-11T01:42:37.662Z,0.93
2018-08-11T01:45:03.641Z,0.90
2018-08-11T01:47:30.324Z,0.90
2018-08-11T01:49:56.302Z,1.00
2018-08-11T01:52:22.980Z,1.07
2018-08-11T01:54:48.940Z,0.93
2018-08-11T01:57:14.913Z,1.10
2018-08-11T01:59:40.859Z,0.97
2018-08-11T02:02:06.841Z,1.10
2018-08-11T02:04:32.806Z,0.87
2018-08-11T02:06:58.786Z,1.00
2018-08-11T02:09:24.739Z,0.90
2018-08-11T02:11:50.701Z,0.97
2018-08-11T02:14:16.643Z,1.00
2018-08-11T02:16:42.643Z,0.90
2018-08-11T02:19:08.610Z,1.20
2018-08-11T02:21:34.554Z,1.20
2018-08-11T02:24:00.541Z,1.10
2018-08-11T02:26:27.240Z,1.30
2018-08-11T02:28:53.215Z,1.10
2018-08-11T02:31:19.213Z,1.20
2018-08-11T02:33:45.219Z,1.40
2018-08-11T02:36:11.164Z,1.30
2018-08-11T02:38:37.891Z,1.03
2018-08-11T02:41:04.621Z,1.00
2018-08-11T02:43:30.599Z,1.40
2018-08-11T02:45:56.544Z,1.27
2018-08-11T02:48:22.491Z,1.33
2018-08-11T02:50:48.469Z,1.23
2018-08-11T02:53:14.405Z,1.33
2018-08-11T02:55:40.391Z,1.30
2018-08-11T02:58:06.373Z,1.47
2018-08-11T03:00:32.382Z,1.40
2018-08-11T03:02:58.343Z,1.90
2018-08-11T03:05:24.294Z,1.47
2018-08-11T03:07:50.262Z,1.40
2018-08-11T03:10:16.225Z,1.20
2018-08-11T03:12:42.965Z,1.47
2018-08-11T03:15:08.921Z,1.27
2018-08-11T03:17:35.637Z,1.20
2018-08-11T03:20:01.591Z,1.13
2018-08-11T03:22:27.589Z,1.20
2018-08-11T03:24:53.563Z,1.13
2018-08-11T03:27:19.509Z,1.23
2018-08-11T03:29:46.226Z,1.10
2018-08-11T03:32:12.177Z,1.20
2018-08-11T03:34:38.885Z,1.10
2018-08-11T03:37:04.831Z,1.30
2018-08-11T03:39:31.534Z,1.37
2018-08-11T03:41:57.506Z,1.20
2018-08-11T03:44:23.489Z,1.10
2018-08-11T03:46:49.442Z,1.17
2018-08-11T03:49:16.138Z,1.27
2018-08-11T03:51:42.113Z,1.10
2018-08-11T03:54:08.070Z,1.30
2018-08-11T03:56:34.045Z,1.20
2018-08-11T03:59:00.741Z,1.30
2018-08-11T04:01:26.724Z,1.10
2018-08-11T04:03:52.694Z,1.57
2018-08-11T04:06:18.700Z,1.47
2018-08-11T04:08:44.665Z,1.53
2018-08-11T04:11:10.631Z,1.40
2018-08-11T04:13:36.622Z,1.37
2018-08-11T04:16:03.304Z,1.90
2018-08-11T04:18:29.306Z,1.30
2018-08-11T04:20:55.270Z,1.57
2018-08-11T04:23:21.238Z,1.50
2018-08-11T04:25:47.939Z,1.50
2018-08-11T04:28:13.924Z,1.43
2018-08-11T04:30:39.873Z,1.50
2018-08-11T04:33:06.400Z,1.63
2018-08-11T04:35:32.425Z,1.70
2018-08-11T04:37:58.375Z,1.60
2018-08-11T04:40:24.357Z,1.57
2018-08-11T04:42:50.319Z,1.80
2018-08-11T04:45:16.311Z,1.70
2018-08-11T04:47:42.285Z,1.60
2018-08-11T04:50:09.008Z,2.03
2018-08-11T04:52:34.991Z,1.80
2018-08-11T04:55:00.983Z,1.90
2018-08-11T04:57:27.682Z,1.67
2018-08-11T04:59:53.729Z,2.00
2018-08-11T05:02:19.761Z,1.73
2018-08-11T05:04:45.709Z,1.60
2018-08-11T05:07:11.702Z,1.70
2018-08-11T05:09:38.413Z,1.63
2018-08-11T05:12:04.430Z,1.80
2018-08-11T05:14:30.423Z,1.80
2018-08-11T05:16:56.422Z,1.80
2018-08-11T05:19:23.137Z,2.00
2018-08-11T05:21:49.125Z,2.37
2018-08-11T05:24:15.101Z,1.77
2018-08-11T05:26:41.834Z,1.90
2018-08-11T05:29:07.795Z,1.93
2018-08-11T05:31:33.750Z,2.10
2018-08-11T05:33:59.743Z,2.10
2018-08-11T05:36:25.693Z,1.80
2018-08-11T05:38:51.688Z,1.60
2018-08-11T05:41:17.675Z,1.90
2018-08-11T05:43:44.419Z,1.57
2018-08-11T05:46:11.131Z,1.80
2018-08-11T05:48:37.148Z,1.63
2018-08-11T05:51:03.150Z,1.57
2018-08-11T05:53:29.110Z,1.60
2018-08-11T05:55:55.868Z,1.60
2018-08-11T05:58:22.564Z,1.60
2018-08-11T06:00:48.552Z,1.77
2018-08-11T06:03:15.252Z,1.80
2018-08-11T06:05:41.249Z,2.10
2018-08-11T06:08:07.222Z,1.67
2018-08-11T06:10:34.003Z,2.17
2018-08-11T06:12:59.959Z,1.60
2018-08-11T06:15:25.986Z,1.80
2018-08-11T06:17:51.961Z,1.83
2018-08-11T06:20:17.963Z,1.70
2018-08-11T06:22:43.923Z,1.50
2018-08-11T06:25:09.924Z,1.60
2018-08-11T06:27:35.907Z,1.50
2018-08-11T06:30:01.866Z,1.40
2018-08-11T06:32:27.879Z,1.63
2018-08-11T06:34:54.563Z,1.23
2018-08-11T06:37:20.545Z,1.40
2018-08-11T06:39:46.488Z,1.60
2018-08-11T06:42:12.473Z,1.43
2018-08-11T06:44:38.425Z,1.17
2018-08-11T06:47:04.487Z,1.00
2018-08-11T06:49:30.469Z,1.10
2018-08-11T06:51:56.466Z,1.27
2018-08-11T06:54:23.214Z,1.13
2018-08-11T06:56:49.175Z,0.83
2018-08-11T06:59:15.193Z,0.90
2018-08-11T07:01:41.153Z,1.03
2018-08-11T07:04:07.177Z,0.80
2018-08-11T07:06:33.184Z,0.93
2018-08-11T07:08:59.131Z,0.90
2018-08-11T07:11:25.123Z,0.87
2018-08-11T07:13:51.088Z,1.10
2018-08-11T07:16:17.826Z,1.07
2018-08-11T07:18:43.769Z,0.90
2018-08-11T07:21:10.491Z,0.93
2018-08-11T07:23:36.464Z,0.80
2018-08-11T07:26:02.457Z,0.97
2018-08-11T07:28:28.480Z,0.80
2018-08-11T07:30:54.497Z,0.60
2018-08-11T07:33:21.200Z,0.80
2018-08-11T07:35:47.189Z,1.27
2018-08-11T07:38:13.196Z,0.90
2018-08-11T07:40:39.225Z,0.90
2018-08-11T07:43:05.266Z,0.93
2018-08-11T07:45:31.249Z,0.90
2018-08-11T07:47:57.989Z,0.80
2018-08-11T07:50:24.755Z,0.80
2018-08-11T07:52:51.467Z,0.90
2018-08-11T07:55:18.171Z,0.80
2018-08-11T07:57:44.119Z,0.63
2018-08-11T08:00:10.095Z,1.00
2018-08-11T08:02:36.077Z,0.90
2018-08-11T08:05:02.090Z,0.73
2018-08-11T08:07:28.051Z,1.00
2018-08-11T08:09:54.027Z,0.73
2018-08-11T08:12:20.038Z,0.67
2018-08-11T08:14:46.018Z,0.93
2018-08-11T08:17:12.010Z,0.80
2018-08-11T08:19:38.752Z,0.70
2018-08-11T08:22:04.742Z,0.77
2018-08-11T08:24:30.729Z,0.90
2018-08-11T08:26:57.470Z,0.83
2018-08-11T08:29:23.432Z,0.90
2018-08-11T08:31:49.406Z,0.60
2018-08-11T08:34:22.369Z,0.70
2018-08-11T08:36:49.089Z,0.83
2018-08-11T08:39:15.079Z,0.80
2018-08-11T08:41:41.095Z,0.67
2018-08-11T08:44:07.061Z,0.80
2018-08-11T08:46:33.066Z,0.70
2018-08-11T08:48:59.028Z,0.60
2018-08-11T08:51:25.049Z,0.70
2018-08-11T08:53:51.741Z,0.50
2018-08-11T08:56:17.754Z,0.63
2018-08-11T08:58:43.731Z,0.50
2018-08-11T09:01:10.460Z,0.63
2018-08-11T09:03:37.223Z,0.70
2018-08-11T09:06:03.941Z,0.80
2018-08-11T09:08:29.937Z,0.60
2018-08-11T09:10:55.909Z,0.67
2018-08-11T09:13:22.644Z,0.50
2018-08-11T09:15:49.356Z,0.60
2018-08-11T09:18:15.302Z,0.60
2018-08-11T09:20:41.313Z,0.50
2018-08-11T09:23:07.292Z,0.50
2018-08-11T09:25:33.310Z,0.50
2018-08-11T09:27:59.289Z,0.60
2018-08-11T09:30:25.281Z,0.40
2018-08-11T09:32:51.260Z,0.50
2018-08-11T09:35:17.974Z,0.50
2018-08-11T09:37:43.923Z,0.50
2018-08-11T09:40:09.907Z,0.50
2018-08-11T09:42:35.930Z,0.40
2018-08-11T09:45:01.925Z,0.30
2018-08-11T09:47:27.895Z,0.57
2018-08-11T09:49:53.863Z,0.50
2018-08-11T09:52:19.916Z,0.40
2018-08-11T09:54:45.839Z,0.50
2018-08-11T09:57:11.814Z,0.40
2018-08-11T09:59:37.875Z,0.30
2018-08-11T10:02:03.840Z,0.43
2018-08-11T10:04:30.586Z,0.53
2018-08-11T10:06:57.302Z,0.50
2018-08-11T10:09:23.289Z,0.40
2018-08-11T10:11:49.237Z,0.43
2018-08-11T10:14:15.233Z,0.40
2018-08-11T10:16:41.208Z,0.50
2018-08-11T10:19:08.007Z,0.40
2018-08-11T10:21:33.971Z,0.40
2018-08-11T10:24:00.698Z,0.50
2018-08-11T10:26:26.705Z,0.50
2018-08-11T10:28:52.651Z,0.50
2018-08-11T10:31:18.631Z,0.40
2018-08-11T10:33:44.627Z,0.40
2018-08-11T10:36:11.343Z,0.60
2018-08-11T10:38:37.320Z,0.40
2018-08-11T10:41:03.288Z,0.60
2018-08-11T10:43:29.282Z,0.50
2018-08-11T10:45:55.281Z,0.50
2018-08-11T10:48:21.264Z,0.47
2018-08-11T10:50:47.983Z,0.50
2018-08-11T10:53:13.998Z,0.50
2018-08-11T10:55:39.967Z,0.70
2018-08-11T10:58:05.959Z,0.50
2018-08-11T11:00:31.910Z,0.70
2018-08-11T11:02:58.662Z,0.70
2018-08-11T11:05:24.637Z,0.60
2018-08-11T11:07:50.630Z,0.87
2018-08-11T11:10:16.617Z,0.50
2018-08-11T11:12:43.361Z,0.53
2018-08-11T11:15:10.060Z,0.60
2018-08-11T11:17:36.024Z,0.80
2018-08-11T11:20:02.784Z,0.70
2018-08-11T11:22:28.748Z,0.70
2018-08-11T11:24:54.748Z,0.97
2018-08-11T11:27:20.715Z,0.60
2018-08-11T11:29:47.460Z,0.70
2018-08-11T11:32:13.401Z,0.70
2018-08-11T11:34:40.092Z,0.80
2018-08-11T11:37:06.125Z,0.60
2018-08-11T11:39:32.109Z,0.80
2018-08-11T11:41:58.118Z,0.70
2018-08-11T11:44:24.097Z,0.60
2018-08-11T11:46:50.100Z,0.50
2018-08-11T11:49:16.068Z,0.50
2018-08-11T11:51:42.772Z,0.50
2018-08-11T11:54:08.792Z,0.60
2018-08-11T11:56:34.774Z,0.50
2018-08-11T11:59:00.782Z,0.70
2018-08-11T12:01:26.784Z,0.50
2018-08-11T12:03:52.778Z,0.60
2018-08-11T12:06:18.770Z,0.40
2018-08-11T12:08:44.796Z,0.57
2018-08-11T12:11:10.764Z,0.70
2018-08-11T12:13:36.740Z,0.40
2018-08-11T12:16:02.742Z,0.40
2018-08-11T12:18:29.474Z,0.40
2018-08-11T12:20:56.221Z,0.50
2018-08-11T12:23:22.928Z,0.70
2018-08-11T12:25:48.912Z,0.50
2018-08-11T12:28:14.870Z,0.50
2018-08-11T12:30:40.877Z,0.50
2018-08-11T12:33:06.865Z,0.60
2018-08-11T12:35:32.871Z,0.70
2018-08-11T12:37:59.643Z,0.70
2018-08-11T12:40:25.573Z,0.60
2018-08-11T12:42:51.569Z,0.60
2018-08-11T12:45:18.293Z,0.50
2018-08-11T12:47:44.338Z,0.60
2018-08-11T12:50:11.033Z,0.43
2018-08-11T12:52:37.037Z,0.60
2018-08-11T12:55:03.029Z,0.50
2018-08-11T12:57:29.015Z,0.70
2018-08-11T12:59:55.026Z,0.53
2018-08-11T13:02:21.005Z,0.73
2018-08-11T13:04:46.997Z,0.50
2018-08-11T13:07:12.960Z,0.50
2018-08-11T13:09:38.937Z,0.50
2018-08-11T13:12:04.896Z,0.60
2018-08-11T13:14:30.881Z,0.50
2018-08-11T13:16:56.898Z,0.60
2018-08-11T13:19:22.862Z,0.60
2018-08-11T13:21:49.601Z,0.70
2018-08-11T13:24:15.574Z,0.63
2018-08-11T13:26:41.572Z,0.70
2018-08-11T13:29:08.300Z,0.40
2018-08-11T13:31:34.314Z,0.70
2018-08-11T13:34:00.348Z,0.47
2018-08-11T13:36:27.101Z,0.57
2018-08-11T13:38:53.100Z,0.50
2018-08-11T13:41:19.815Z,0.50
2018-08-11T13:43:46.562Z,0.50
2018-08-11T13:46:13.284Z,0.63
2018-08-11T13:48:39.297Z,0.40
2018-08-11T13:51:05.284Z,0.53
2018-08-11T13:53:31.265Z,0.67
2018-08-11T13:55:57.236Z,0.60
2018-08-11T13:58:23.225Z,0.50
2018-08-11T14:00:49.926Z,0.60
2018-08-11T14:03:15.913Z,0.50
2018-08-11T14:05:41.908Z,0.70
2018-08-11T14:08:08.629Z,0.50
2018-08-11T14:10:34.610Z,0.63
2018-08-11T14:13:00.597Z,0.70
2018-08-11T14:15:27.289Z,0.63
2018-08-11T14:17:53.289Z,0.60
2018-08-11T14:20:19.379Z,0.70
2018-08-11T14:22:45.343Z,0.60
2018-08-11T14:25:11.360Z,0.80
2018-08-11T14:27:37.348Z,0.70
2018-08-11T14:30:04.109Z,0.67
2018-08-11T14:32:30.174Z,0.80
2018-08-11T14:34:56.157Z,0.83
2018-08-11T14:37:22.183Z,0.97
2018-08-11T14:39:48.169Z,0.90
2018-08-11T14:42:14.148Z,0.87
2018-08-11T14:44:40.158Z,0.73
2018-08-11T14:47:06.202Z,0.70
2018-08-11T14:49:32.167Z,0.50
2018-08-11T14:51:58.148Z,0.80
2018-08-11T14:54:24.117Z,0.50
2018-08-11T14:56:50.102Z,0.77
2018-08-11T14:59:16.073Z,0.77
2018-08-11T15:01:42.819Z,0.70
2018-08-11T15:04:09.543Z,0.60
2018-08-11T15:06:35.496Z,0.50
2018-08-11T15:09:01.491Z,0.60
2018-08-11T15:11:28.212Z,0.70
2018-08-11T15:13:54.213Z,0.80
2018-08-11T15:16:20.602Z,0.90
2018-08-11T15:18:46.585Z,0.70
2018-08-11T15:21:12.591Z,0.70
2018-08-11T15:23:38.583Z,0.77
2018-08-11T15:26:04.608Z,0.47
2018-08-11T15:28:30.604Z,0.60
2018-08-11T15:30:57.369Z,0.90
2018-08-11T15:33:24.058Z,0.60
2018-08-11T15:35:50.062Z,0.70
2018-08-11T15:38:16.037Z,0.70
2018-08-11T15:40:42.027Z,0.53
2018-08-11T15:43:07.998Z,0.70
2018-08-11T15:45:34.000Z,0.70
2018-08-11T15:47:59.967Z,0.70
2018-08-11T15:50:25.963Z,0.60
2018-08-11T15:52:51.946Z,0.70
2018-08-11T15:55:17.900Z,0.40
2018-08-11T15:57:43.931Z,0.60
2018-08-11T16:00:10.628Z,0.53
2018-08-11T16:02:36.646Z,0.70
2018-08-11T16:05:02.626Z,0.60
2018-08-11T16:07:28.620Z,0.50
2018-08-11T16:09:55.352Z,0.70
2018-08-11T16:12:21.326Z,0.70
2018-08-11T16:14:47.318Z,0.70
2018-08-11T16:17:14.027Z,0.50
2018-08-11T16:19:40.047Z,0.67
2018-08-11T16:22:05.993Z,0.53
2018-08-11T16:24:31.980Z,0.50
2018-08-11T16:26:57.937Z,0.67
2018-08-11T16:29:23.985Z,0.67
2018-08-11T16:31:49.945Z,0.50
2018-08-11T16:34:15.924Z,0.67
2018-08-11T16:36:42.656Z,0.53
2018-08-11T16:39:09.352Z,0.60
2018-08-11T16:41:36.083Z,0.53
2018-08-11T16:44:02.041Z,0.60
2018-08-11T16:46:28.088Z,0.70
2018-08-11T16:48:54.768Z,1.50
2018-08-11T16:51:20.775Z,0.70
2018-08-11T16:53:46.795Z,0.57
2018-08-11T16:56:12.730Z,0.90
2018-08-11T16:58:38.730Z,0.80
2018-08-11T17:01:05.437Z,0.90
2018-08-11T17:03:31.433Z,0.53
2018-08-11T17:05:57.469Z,1.00
2018-08-11T17:08:24.118Z,0.80
2018-08-11T17:10:50.087Z,0.70
2018-08-11T17:13:16.060Z,0.60
2018-08-11T17:15:42.015Z,1.20
2018-08-11T17:18:08.733Z,1.10
2018-08-11T17:20:34.693Z,0.70
2018-08-11T17:23:00.658Z,0.83
2018-08-11T17:25:26.652Z,0.70
2018-08-11T17:27:52.625Z,0.67
2018-08-11T17:30:18.639Z,0.80
2018-08-11T17:32:44.606Z,1.00
2018-08-11T17:35:10.660Z,0.90
2018-08-11T17:37:36.609Z,1.00
2018-08-11T17:40:02.656Z,0.67
2018-08-11T17:42:28.610Z,1.90
2018-08-11T17:44:54.589Z,2.03
2018-08-11T17:47:20.619Z,1.27
2018-08-11T17:49:46.613Z,0.90
2018-08-11T17:52:12.620Z,0.60
2018-08-11T17:54:38.595Z,0.70
2018-08-11T17:57:04.571Z,0.80
2018-08-11T17:59:30.561Z,0.70
2018-08-11T18:01:56.543Z,0.70
2018-08-11T18:04:22.543Z,0.87
2018-08-11T18:06:48.580Z,0.90
2018-08-11T18:09:14.567Z,1.00
2018-08-11T18:11:40.544Z,0.60
2018-08-11T18:14:06.642Z,1.03
2018-08-11T18:16:32.625Z,0.70
2018-08-11T18:18:58.646Z,0.87
2018-08-11T18:21:25.351Z,0.90
2018-08-11T18:23:51.346Z,0.70
2018-08-11T18:26:17.315Z,0.60
2018-08-11T18:28:44.064Z,0.50
2018-08-11T18:31:10.805Z,0.70
2018-08-11T18:33:37.561Z,0.80
2018-08-11T18:36:03.562Z,0.70
2018-08-11T18:38:30.267Z,0.60
2018-08-11T18:40:56.235Z,0.93
2018-08-11T18:43:22.972Z,0.70
2018-08-11T18:45:48.950Z,0.70
2018-08-11T18:48:14.933Z,0.60
2018-08-11T18:50:40.930Z,0.83
2018-08-11T18:53:06.891Z,0.90
2018-08-11T18:55:32.853Z,0.87
2018-08-11T18:57:58.842Z,0.97
2018-08-11T19:00:24.816Z,1.00
2018-08-11T19:02:50.808Z,0.70
2018-08-11T19:05:16.788Z,0.70
2018-08-11T19:07:42.789Z,0.80
2018-08-11T19:10:08.764Z,1.17
2018-08-11T19:12:35.473Z,0.80
2018-08-11T19:15:02.206Z,0.70
2018-08-11T19:17:28.921Z,0.80
2018-08-11T19:19:54.947Z,0.90
2018-08-11T19:22:21.701Z,1.00
2018-08-11T19:24:48.431Z,1.20
2018-08-11T19:27:14.390Z,1.00
2018-08-11T19:29:40.391Z,1.40
2018-08-11T19:32:07.120Z,1.10
2018-08-11T19:34:33.076Z,1.00
2018-08-11T19:36:59.801Z,0.97
2018-08-11T19:39:26.532Z,0.80
2018-08-11T19:41:53.278Z,0.90
2018-08-11T19:44:19.996Z,1.30
2018-08-11T19:46:45.989Z,1.10
2018-08-11T19:49:11.976Z,1.00
2018-08-11T19:51:37.986Z,1.00
2018-08-11T19:54:04.037Z,1.07
2018-08-11T19:56:29.997Z,0.63
2018-08-11T19:58:55.988Z,0.83
2018-08-11T20:01:22.006Z,1.57
2018-08-11T20:03:48.024Z,1.20
2018-08-11T20:06:14.000Z,1.40
2018-08-11T20:08:39.996Z,1.10
2018-08-11T20:11:05.966Z,1.20
2018-08-11T20:13:32.714Z,0.97
2018-08-11T20:15:59.444Z,0.70
2018-08-11T20:18:25.397Z,0.80
2018-08-11T20:20:51.393Z,1.00
2018-08-11T20:23:17.354Z,0.90
2018-08-11T20:25:43.333Z,0.97
2018-08-11T20:28:09.300Z,0.90
2018-08-11T20:30:35.303Z,1.00
2018-08-11T20:33:02.006Z,0.83
2018-08-11T20:35:27.998Z,0.80
2018-08-11T20:37:53.976Z,0.77
2018-08-11T20:40:19.993Z,0.90
2018-08-11T20:42:45.945Z,0.90
2018-08-11T20:45:11.961Z,1.20
2018-08-11T20:47:38.717Z,0.90
2018-08-11T20:50:04.684Z,1.20
2018-08-11T20:52:31.463Z,1.07
2018-08-11T20:54:58.166Z,1.10
2018-08-11T20:57:24.139Z,1.00
2018-08-11T20:59:50.093Z,1.17
2018-08-11T21:02:16.097Z,0.97
2018-08-11T21:04:42.084Z,1.30
2018-08-11T21:07:08.192Z,0.93
2018-08-11T21:09:34.270Z,1.10
2018-08-11T21:12:00.239Z,1.00
2018-08-11T21:14:26.225Z,0.90
2018-08-11T21:16:52.196Z,1.10
2018-08-11T21:19:18.198Z,1.20
2018-08-11T21:21:44.158Z,1.17
2018-08-11T21:24:11.006Z,1.23
2018-08-11T21:26:37.037Z,1.10
2018-08-11T21:29:03.726Z,1.10
2018-08-11T21:31:29.803Z,1.10
2018-08-11T21:34:00.141Z,1.10
2018-08-11T21:36:27.666Z,1.10
2018-08-11T21:38:54.453Z,1.40
2018-08-11T21:41:20.603Z,1.30
2018-08-11T21:43:47.382Z,1.30
2018-08-11T21:46:13.444Z,1.30
2018-08-11T21:48:39.521Z,1.20
2018-08-11T21:51:06.289Z,1.30
2018-08-11T21:53:32.297Z,1.23
2018-08-11T21:55:59.060Z,1.30
2018-08-11T21:58:25.052Z,1.17
2018-08-11T22:00:51.049Z,1.20
2018-08-11T22:03:17.119Z,1.33
2018-08-11T22:05:43.871Z,1.50
2018-08-11T22:08:09.850Z,1.73
2018-08-11T22:10:35.854Z,1.53
2018-08-11T22:13:01.834Z,1.80
2018-08-11T22:15:27.805Z,1.50
2018-08-11T22:17:53.821Z,1.57
2018-08-11T22:20:20.572Z,1.63
2018-08-11T22:22:46.591Z,1.50
2018-08-11T22:25:12.558Z,1.83
2018-08-11T22:27:39.270Z,1.63
2018-08-11T22:30:05.254Z,1.97
2018-08-11T22:32:31.248Z,1.80
2018-08-11T22:34:58.004Z,1.50
2018-08-11T22:37:23.980Z,1.50
2018-08-11T22:39:49.952Z,1.60
2018-08-11T22:42:15.891Z,1.90
2018-08-11T22:44:41.888Z,1.63
2018-08-11T22:47:07.906Z,1.50
2018-08-11T22:49:33.858Z,1.47
2018-08-11T22:51:59.829Z,1.50
2018-08-11T22:54:25.792Z,1.50
2018-08-11T22:56:51.777Z,2.00
2018-08-11T22:59:17.750Z,1.60
2018-08-11T23:01:44.474Z,1.90
2018-08-11T23:04:10.440Z,1.70
2018-08-11T23:06:36.441Z,1.90
2018-08-11T23:09:02.435Z,1.60
2018-08-11T23:11:28.437Z,1.90
2018-08-11T23:13:54.410Z,2.03
2018-08-11T23:16:20.416Z,1.90
2018-08-11T23:18:46.400Z,1.87
2018-08-11T23:21:12.383Z,1.93
2018-08-11T23:23:38.348Z,1.87
2018-08-11T23:26:05.101Z,1.97
2018-08-11T23:28:31.791Z,2.00
2018-08-11T23:30:57.771Z,2.33
2018-08-11T23:33:24.478Z,2.47
2018-08-11T23:35:50.461Z,2.37
2018-08-11T23:38:16.451Z,2.60
2018-08-11T23:40:42.408Z,2.60
2018-08-11T23:43:08.416Z,2.40
2018-08-11T23:45:34.379Z,2.70
2018-08-11T23:48:01.148Z,2.27
2018-08-11T23:50:27.874Z,3.00
2018-08-11T23:52:53.882Z,2.70
2018-08-11T23:55:19.865Z,3.03
2018-08-11T23:57:45.882Z,3.20
